sensor_id;sensor_type;location;lat;lon;timestamp;temperature;humidity
1778;DHT22;886;50.082;8.222;2023-03-14T00:00:07;11.60;99.90
1778;DHT22;886;50.082;8.222;2023-03-14T00:02:35;11.60;99.90
1778;DHT22;886;50.082;8.222;2023-03-14T00:05:05;11.50;99.90
1778;DHT22;886;50.082;8.222;2023-03-14T00:07:34;11.50;99.90
1778;DHT22;886;50.082;8.222;2023-03-14T00:10:04;11.50;99.90
1778;DHT22;886;50.082;8.222;2023-03-14T00:12:32;11.40;99.90
1778;DHT22;886;50.082;8.222;2023-03-14T00:15:00;11.50;99.90
1778;DHT22;886;50.082;8.222;2023-03-14T00:17:29;11.50;99.90
1778;DHT22;886;50.082;8.222;2023-03-14T00:19:57;11.60;99.90
1778;DHT22;886;50.082;8.222;2023-03-14T00:22:31;11.60;99.90
1778;DHT22;886;50.082;8.222;2023-03-14T00:24:59;11.60;99.90
1778;DHT22;886;50.082;8.222;2023-03-14T00:27:26;11.50;99.90
1778;DHT22;886;50.082;8.222;2023-03-14T00:29:53;11.50;99.90
1778;DHT22;886;50.082;8.222;2023-03-14T00:32:20;11.50;99.90
1778;DHT22;886;50.082;8.222;2023-03-14T00:34:47;11.50;99.90
1778;DHT22;886;50.082;8.222;2023-03-14T00:37:15;11.40;99.90
1778;DHT22;886;50.082;8.222;2023-03-14T00:39:43;11.40;99.90
1778;DHT22;886;50.082;8.222;2023-03-14T00:42:11;11.50;99.90
1778;DHT22;886;50.082;8.222;2023-03-14T00:44:39;11.60;99.90
1778;DHT22;886;50.082;8.222;2023-03-14T00:47:06;11.60;99.90
1778;DHT22;886;50.082;8.222;2023-03-14T00:49:34;11.70;99.90
1778;DHT22;886;50.082;8.222;2023-03-14T00:52:01;11.60;99.90
1778;DHT22;886;50.082;8.222;2023-03-14T00:54:28;11.60;99.90
1778;DHT22;886;50.082;8.222;2023-03-14T00:56:56;11.60;99.90
1778;DHT22;886;50.082;8.222;2023-03-14T00:59:23;11.60;99.90
1778;DHT22;886;50.082;8.222;2023-03-14T01:01:51;11.50;99.90
1778;DHT22;886;50.082;8.222;2023-03-14T01:04:18;11.50;99.90
1778;DHT22;886;50.082;8.222;2023-03-14T01:06:45;11.60;99.90
1778;DHT22;886;50.082;8.222;2023-03-14T01:09:12;11.60;99.90
1778;DHT22;886;50.082;8.222;2023-03-14T01:11:40;11.60;99.90
1778;DHT22;886;50.082;8.222;2023-03-14T01:14:10;11.60;99.90
1778;DHT22;886;50.082;8.222;2023-03-14T01:16:37;11.60;99.90
1778;DHT22;886;50.082;8.222;2023-03-14T01:19:04;11.60;99.90
1778;DHT22;886;50.082;8.222;2023-03-14T01:21:34;11.60;99.90
1778;DHT22;886;50.082;8.222;2023-03-14T01:24:03;11.60;99.90
1778;DHT22;886;50.082;8.222;2023-03-14T01:26:34;11.60;99.90
1778;DHT22;886;50.082;8.222;2023-03-14T01:29:02;11.60;99.90
1778;DHT22;886;50.082;8.222;2023-03-14T01:31:31;11.60;99.90
1778;DHT22;886;50.082;8.222;2023-03-14T01:33:59;11.60;99.90
1778;DHT22;886;50.082;8.222;2023-03-14T01:36:27;11.60;99.90
1778;DHT22;886;50.082;8.222;2023-03-14T01:38:56;11.60;99.90
1778;DHT22;886;50.082;8.222;2023-03-14T01:41:25;11.60;99.90
1778;DHT22;886;50.082;8.222;2023-03-14T01:43:53;11.60;99.90
1778;DHT22;886;50.082;8.222;2023-03-14T01:46:35;11.60;99.90
1778;DHT22;886;50.082;8.222;2023-03-14T01:49:13;11.60;99.90
1778;DHT22;886;50.082;8.222;2023-03-14T01:51:48;11.60;99.90
1778;DHT22;886;50.082;8.222;2023-03-14T01:54:20;11.60;99.90
1778;DHT22;886;50.082;8.222;2023-03-14T01:56:53;11.60;99.90
1778;DHT22;886;50.082;8.222;2023-03-14T01:59:24;11.60;99.90
1778;DHT22;886;50.082;8.222;2023-03-14T02:01:54;11.60;99.90
1778;DHT22;886;50.082;8.222;2023-03-14T02:04:22;11.60;99.90
1778;DHT22;886;50.082;8.222;2023-03-14T02:06:55;11.60;99.90
1778;DHT22;886;50.082;8.222;2023-03-14T02:09:25;11.60;99.90
1778;DHT22;886;50.082;8.222;2023-03-14T02:11:53;11.60;99.90
1778;DHT22;886;50.082;8.222;2023-03-14T02:14:27;11.60;99.90
1778;DHT22;886;50.082;8.222;2023-03-14T02:16:59;11.60;99.90
1778;DHT22;886;50.082;8.222;2023-03-14T02:19:39;11.60;99.90
1778;DHT22;886;50.082;8.222;2023-03-14T02:22:12;11.60;99.90
1778;DHT22;886;50.082;8.222;2023-03-14T02:24:45;11.60;99.90
1778;DHT22;886;50.082;8.222;2023-03-14T02:27:17;11.60;99.90
1778;DHT22;886;50.082;8.222;2023-03-14T02:29:50;11.60;99.90
1778;DHT22;886;50.082;8.222;2023-03-14T02:32:21;11.60;99.90
1778;DHT22;886;50.082;8.222;2023-03-14T02:34:51;11.60;99.90
1778;DHT22;886;50.082;8.222;2023-03-14T02:37:24;11.50;99.90
1778;DHT22;886;50.082;8.222;2023-03-14T02:39:54;11.50;99.90
1778;DHT22;886;50.082;8.222;2023-03-14T02:42:22;11.50;99.90
1778;DHT22;886;50.082;8.222;2023-03-14T02:44:52;11.60;99.90
1778;DHT22;886;50.082;8.222;2023-03-14T02:47:26;11.50;99.90
1778;DHT22;886;50.082;8.222;2023-03-14T02:49:59;11.60;99.90
1778;DHT22;886;50.082;8.222;2023-03-14T02:52:29;11.60;99.90
1778;DHT22;886;50.082;8.222;2023-03-14T02:54:56;11.50;99.90
1778;DHT22;886;50.082;8.222;2023-03-14T02:57:25;11.50;99.90
1778;DHT22;886;50.082;8.222;2023-03-14T02:59:52;11.50;99.90
1778;DHT22;886;50.082;8.222;2023-03-14T03:02:19;11.50;99.90
1778;DHT22;886;50.082;8.222;2023-03-14T03:04:46;11.40;99.90
1778;DHT22;886;50.082;8.222;2023-03-14T03:07:14;11.50;99.90
1778;DHT22;886;50.082;8.222;2023-03-14T03:09:41;11.50;99.90
1778;DHT22;886;50.082;8.222;2023-03-14T03:12:08;11.50;99.90
1778;DHT22;886;50.082;8.222;2023-03-14T03:14:37;11.40;99.90
1778;DHT22;886;50.082;8.222;2023-03-14T03:17:05;11.50;99.90
1778;DHT22;886;50.082;8.222;2023-03-14T03:19:33;11.50;99.90
1778;DHT22;886;50.082;8.222;2023-03-14T03:22:01;11.40;99.90
1778;DHT22;886;50.082;8.222;2023-03-14T03:24:29;11.40;99.90
1778;DHT22;886;50.082;8.222;2023-03-14T03:26:56;11.40;99.90
1778;DHT22;886;50.082;8.222;2023-03-14T03:29:23;11.40;99.90
1778;DHT22;886;50.082;8.222;2023-03-14T03:31:52;11.50;99.90
1778;DHT22;886;50.082;8.222;2023-03-14T03:34:20;11.40;99.90
1778;DHT22;886;50.082;8.222;2023-03-14T03:36:47;11.40;99.90
1778;DHT22;886;50.082;8.222;2023-03-14T03:39:15;11.40;99.90
1778;DHT22;886;50.082;8.222;2023-03-14T03:41:42;11.40;99.90
1778;DHT22;886;50.082;8.222;2023-03-14T03:44:09;11.40;99.90
1778;DHT22;886;50.082;8.222;2023-03-14T03:46:36;11.40;99.90
1778;DHT22;886;50.082;8.222;2023-03-14T03:49:04;11.40;99.90
1778;DHT22;886;50.082;8.222;2023-03-14T03:51:31;11.40;99.90
1778;DHT22;886;50.082;8.222;2023-03-14T03:53:58;11.40;99.90
1778;DHT22;886;50.082;8.222;2023-03-14T03:56:26;11.40;99.90
1778;DHT22;886;50.082;8.222;2023-03-14T03:58:53;11.40;99.90
1778;DHT22;886;50.082;8.222;2023-03-14T04:01:19;11.40;99.90
1778;DHT22;886;50.082;8.222;2023-03-14T04:03:47;11.50;99.90
1778;DHT22;886;50.082;8.222;2023-03-14T04:06:16;11.50;99.90
1778;DHT22;886;50.082;8.222;2023-03-14T04:08:43;11.50;99.90
1778;DHT22;886;50.082;8.222;2023-03-14T04:11:10;11.50;99.90
1778;DHT22;886;50.082;8.222;2023-03-14T04:13:38;11.40;99.90
1778;DHT22;886;50.082;8.222;2023-03-14T04:16:11;11.50;99.90
1778;DHT22;886;50.082;8.222;2023-03-14T04:18:42;11.40;99.90
1778;DHT22;886;50.082;8.222;2023-03-14T04:21:09;11.40;99.90
1778;DHT22;886;50.082;8.222;2023-03-14T04:23:37;11.50;99.90
1778;DHT22;886;50.082;8.222;2023-03-14T04:26:05;11.50;99.90
1778;DHT22;886;50.082;8.222;2023-03-14T04:28:32;11.50;99.90
1778;DHT22;886;50.082;8.222;2023-03-14T04:31:06;11.50;99.90
1778;DHT22;886;50.082;8.222;2023-03-14T04:33:34;11.40;99.90
1778;DHT22;886;50.082;8.222;2023-03-14T04:36:03;11.50;99.90
1778;DHT22;886;50.082;8.222;2023-03-14T04:38:31;11.40;99.90
1778;DHT22;886;50.082;8.222;2023-03-14T04:41:00;11.40;99.90
1778;DHT22;886;50.082;8.222;2023-03-14T04:43:27;11.40;99.90
1778;DHT22;886;50.082;8.222;2023-03-14T04:45:56;11.40;99.90
1778;DHT22;886;50.082;8.222;2023-03-14T04:48:25;11.50;99.90
1778;DHT22;886;50.082;8.222;2023-03-14T04:50:52;11.50;99.90
1778;DHT22;886;50.082;8.222;2023-03-14T04:53:19;11.40;99.90
1778;DHT22;886;50.082;8.222;2023-03-14T04:55:50;11.40;99.90
1778;DHT22;886;50.082;8.222;2023-03-14T04:58:20;11.40;99.90
1778;DHT22;886;50.082;8.222;2023-03-14T05:00:48;11.30;99.90
1778;DHT22;886;50.082;8.222;2023-03-14T05:03:15;11.30;99.90
1778;DHT22;886;50.082;8.222;2023-03-14T05:05:44;11.30;99.90
1778;DHT22;886;50.082;8.222;2023-03-14T05:08:11;11.40;99.90
1778;DHT22;886;50.082;8.222;2023-03-14T05:10:38;11.30;99.90
1778;DHT22;886;50.082;8.222;2023-03-14T05:13:06;11.30;99.90
1778;DHT22;886;50.082;8.222;2023-03-14T05:15:34;11.40;99.90
1778;DHT22;886;50.082;8.222;2023-03-14T05:18:02;11.40;99.90
1778;DHT22;886;50.082;8.222;2023-03-14T05:20:30;11.40;99.90
1778;DHT22;886;50.082;8.222;2023-03-14T05:22:57;11.40;99.90
1778;DHT22;886;50.082;8.222;2023-03-14T05:25:24;11.40;99.90
1778;DHT22;886;50.082;8.222;2023-03-14T05:27:53;11.40;99.90
1778;DHT22;886;50.082;8.222;2023-03-14T05:30:21;11.40;99.90
1778;DHT22;886;50.082;8.222;2023-03-14T05:32:50;11.40;99.90
1778;DHT22;886;50.082;8.222;2023-03-14T05:35:17;11.40;99.90
1778;DHT22;886;50.082;8.222;2023-03-14T05:37:44;11.40;99.90
1778;DHT22;886;50.082;8.222;2023-03-14T05:40:12;11.40;99.90
1778;DHT22;886;50.082;8.222;2023-03-14T05:42:39;11.40;99.90
1778;DHT22;886;50.082;8.222;2023-03-14T05:45:07;11.40;99.90
1778;DHT22;886;50.082;8.222;2023-03-14T05:47:34;11.40;99.90
1778;DHT22;886;50.082;8.222;2023-03-14T05:50:04;11.40;99.90
1778;DHT22;886;50.082;8.222;2023-03-14T05:52:32;11.40;99.90
1778;DHT22;886;50.082;8.222;2023-03-14T05:54:59;11.40;99.90
1778;DHT22;886;50.082;8.222;2023-03-14T05:57:26;11.40;99.90
1778;DHT22;886;50.082;8.222;2023-03-14T05:59:53;11.50;99.90
1778;DHT22;886;50.082;8.222;2023-03-14T06:02:20;11.50;99.90
1778;DHT22;886;50.082;8.222;2023-03-14T06:04:47;11.50;99.90
1778;DHT22;886;50.082;8.222;2023-03-14T06:07:16;11.50;99.90
1778;DHT22;886;50.082;8.222;2023-03-14T06:09:43;11.50;99.90
1778;DHT22;886;50.082;8.222;2023-03-14T06:12:10;11.40;99.90
1778;DHT22;886;50.082;8.222;2023-03-14T06:14:55;11.40;99.90
1778;DHT22;886;50.082;8.222;2023-03-14T06:17:22;11.40;99.90
1778;DHT22;886;50.082;8.222;2023-03-14T06:19:49;11.40;99.90
1778;DHT22;886;50.082;8.222;2023-03-14T06:22:17;11.40;99.90
1778;DHT22;886;50.082;8.222;2023-03-14T06:24:46;11.40;99.90
1778;DHT22;886;50.082;8.222;2023-03-14T06:27:13;11.40;99.90
1778;DHT22;886;50.082;8.222;2023-03-14T06:29:40;11.40;99.90
1778;DHT22;886;50.082;8.222;2023-03-14T06:32:07;11.40;99.90
1778;DHT22;886;50.082;8.222;2023-03-14T06:34:35;11.40;99.90
1778;DHT22;886;50.082;8.222;2023-03-14T06:37:02;11.40;99.90
1778;DHT22;886;50.082;8.222;2023-03-14T06:39:30;11.40;99.90
1778;DHT22;886;50.082;8.222;2023-03-14T06:41:58;11.40;99.90
1778;DHT22;886;50.082;8.222;2023-03-14T06:44:25;11.50;99.90
1778;DHT22;886;50.082;8.222;2023-03-14T06:46:52;11.50;99.90
1778;DHT22;886;50.082;8.222;2023-03-14T06:49:20;11.50;99.90
1778;DHT22;886;50.082;8.222;2023-03-14T06:51:47;11.50;99.90
1778;DHT22;886;50.082;8.222;2023-03-14T06:54:14;11.50;99.90
1778;DHT22;886;50.082;8.222;2023-03-14T06:56:42;11.50;99.90
1778;DHT22;886;50.082;8.222;2023-03-14T06:59:10;11.50;99.90
1778;DHT22;886;50.082;8.222;2023-03-14T07:01:37;11.60;99.90
1778;DHT22;886;50.082;8.222;2023-03-14T07:04:05;11.60;99.90
1778;DHT22;886;50.082;8.222;2023-03-14T07:06:33;11.60;99.90
1778;DHT22;886;50.082;8.222;2023-03-14T07:09:00;11.60;99.90
1778;DHT22;886;50.082;8.222;2023-03-14T07:11:49;11.60;99.90
1778;DHT22;886;50.082;8.222;2023-03-14T07:14:16;11.60;99.90
1778;DHT22;886;50.082;8.222;2023-03-14T07:16:43;11.60;99.90
1778;DHT22;886;50.082;8.222;2023-03-14T07:19:10;11.60;99.90
1778;DHT22;886;50.082;8.222;2023-03-14T07:21:37;11.60;99.90
1778;DHT22;886;50.082;8.222;2023-03-14T07:24:05;11.70;99.90
1778;DHT22;886;50.082;8.222;2023-03-14T07:26:32;11.70;99.90
1778;DHT22;886;50.082;8.222;2023-03-14T07:29:01;11.70;99.90
1778;DHT22;886;50.082;8.222;2023-03-14T07:31:30;11.70;99.90
1778;DHT22;886;50.082;8.222;2023-03-14T07:33:58;11.70;99.90
1778;DHT22;886;50.082;8.222;2023-03-14T07:36:25;11.70;99.90
1778;DHT22;886;50.082;8.222;2023-03-14T07:38:52;11.70;99.90
1778;DHT22;886;50.082;8.222;2023-03-14T07:41:19;11.60;99.90
1778;DHT22;886;50.082;8.222;2023-03-14T07:43:47;11.70;99.90
1778;DHT22;886;50.082;8.222;2023-03-14T07:46:16;11.70;99.90
1778;DHT22;886;50.082;8.222;2023-03-14T07:48:44;11.70;99.90
1778;DHT22;886;50.082;8.222;2023-03-14T07:51:12;11.60;99.90
1778;DHT22;886;50.082;8.222;2023-03-14T07:53:39;11.70;99.90
1778;DHT22;886;50.082;8.222;2023-03-14T07:56:07;11.70;99.90
1778;DHT22;886;50.082;8.222;2023-03-14T07:58:35;11.70;99.90
1778;DHT22;886;50.082;8.222;2023-03-14T08:01:02;11.70;99.90
1778;DHT22;886;50.082;8.222;2023-03-14T08:03:31;11.70;99.90
1778;DHT22;886;50.082;8.222;2023-03-14T08:05:59;11.70;99.90
1778;DHT22;886;50.082;8.222;2023-03-14T08:08:26;11.70;99.90
1778;DHT22;886;50.082;8.222;2023-03-14T08:10:53;11.70;99.90
1778;DHT22;886;50.082;8.222;2023-03-14T08:13:21;11.70;99.90
1778;DHT22;886;50.082;8.222;2023-03-14T08:15:50;11.80;99.90
1778;DHT22;886;50.082;8.222;2023-03-14T08:18:18;11.80;99.90
1778;DHT22;886;50.082;8.222;2023-03-14T08:20:46;11.90;99.90
1778;DHT22;886;50.082;8.222;2023-03-14T08:23:13;11.90;99.90
1778;DHT22;886;50.082;8.222;2023-03-14T08:25:40;12.00;99.90
1778;DHT22;886;50.082;8.222;2023-03-14T08:28:08;12.00;99.90
1778;DHT22;886;50.082;8.222;2023-03-14T08:30:35;12.10;99.90
1778;DHT22;886;50.082;8.222;2023-03-14T08:33:02;12.20;99.90
1778;DHT22;886;50.082;8.222;2023-03-14T08:35:29;12.30;99.90
1778;DHT22;886;50.082;8.222;2023-03-14T08:37:58;12.20;99.90
1778;DHT22;886;50.082;8.222;2023-03-14T08:40:25;12.20;99.90
1778;DHT22;886;50.082;8.222;2023-03-14T08:42:52;12.20;99.90
1778;DHT22;886;50.082;8.222;2023-03-14T08:45:20;12.20;99.90
1778;DHT22;886;50.082;8.222;2023-03-14T08:47:48;12.10;99.90
1778;DHT22;886;50.082;8.222;2023-03-14T08:50:15;12.20;99.90
1778;DHT22;886;50.082;8.222;2023-03-14T08:52:42;12.20;99.90
1778;DHT22;886;50.082;8.222;2023-03-14T08:55:11;12.20;99.90
1778;DHT22;886;50.082;8.222;2023-03-14T08:57:38;12.30;99.90
1778;DHT22;886;50.082;8.222;2023-03-14T09:00:07;12.30;99.90
1778;DHT22;886;50.082;8.222;2023-03-14T09:02:39;12.30;99.90
1778;DHT22;886;50.082;8.222;2023-03-14T09:05:07;12.20;99.90
1778;DHT22;886;50.082;8.222;2023-03-14T09:07:35;12.10;99.90
1778;DHT22;886;50.082;8.222;2023-03-14T09:10:03;12.20;99.90
1778;DHT22;886;50.082;8.222;2023-03-14T09:12:32;12.20;99.90
1778;DHT22;886;50.082;8.222;2023-03-14T09:14:59;12.10;99.90
1778;DHT22;886;50.082;8.222;2023-03-14T09:17:26;12.10;99.90
1778;DHT22;886;50.082;8.222;2023-03-14T09:19:53;12.10;99.90
1778;DHT22;886;50.082;8.222;2023-03-14T09:22:20;12.10;99.90
1778;DHT22;886;50.082;8.222;2023-03-14T09:24:48;12.10;99.90
1778;DHT22;886;50.082;8.222;2023-03-14T09:27:15;12.10;99.90
1778;DHT22;886;50.082;8.222;2023-03-14T09:29:44;12.10;99.90
1778;DHT22;886;50.082;8.222;2023-03-14T09:32:11;12.10;99.90
1778;DHT22;886;50.082;8.222;2023-03-14T09:34:38;12.10;99.90
1778;DHT22;886;50.082;8.222;2023-03-14T09:37:05;12.10;99.90
1778;DHT22;886;50.082;8.222;2023-03-14T09:39:33;12.10;99.90
1778;DHT22;886;50.082;8.222;2023-03-14T09:42:02;12.10;99.90
1778;DHT22;886;50.082;8.222;2023-03-14T09:44:34;12.20;99.90
1778;DHT22;886;50.082;8.222;2023-03-14T09:47:06;12.20;99.90
1778;DHT22;886;50.082;8.222;2023-03-14T09:49:40;12.10;99.90
1778;DHT22;886;50.082;8.222;2023-03-14T09:52:13;12.10;99.90
1778;DHT22;886;50.082;8.222;2023-03-14T09:54:45;12.10;99.90
1778;DHT22;886;50.082;8.222;2023-03-14T09:57:17;12.20;99.90
1778;DHT22;886;50.082;8.222;2023-03-14T09:59:46;12.20;99.90
1778;DHT22;886;50.082;8.222;2023-03-14T10:02:19;12.30;99.90
1778;DHT22;886;50.082;8.222;2023-03-14T10:04:49;12.20;99.90
1778;DHT22;886;50.082;8.222;2023-03-14T10:07:19;12.20;99.90
1778;DHT22;886;50.082;8.222;2023-03-14T10:09:50;12.30;99.90
1778;DHT22;886;50.082;8.222;2023-03-14T10:12:36;12.30;99.90
1778;DHT22;886;50.082;8.222;2023-03-14T10:15:08;12.30;99.90
1778;DHT22;886;50.082;8.222;2023-03-14T10:17:42;12.20;99.90
1778;DHT22;886;50.082;8.222;2023-03-14T10:20:27;12.30;99.90
1778;DHT22;886;50.082;8.222;2023-03-14T10:23:00;12.40;99.90
1778;DHT22;886;50.082;8.222;2023-03-14T10:25:31;12.40;99.90
1778;DHT22;886;50.082;8.222;2023-03-14T10:27:59;12.30;99.90
1778;DHT22;886;50.082;8.222;2023-03-14T10:30:32;12.40;99.90
1778;DHT22;886;50.082;8.222;2023-03-14T10:33:10;12.40;99.90
1778;DHT22;886;50.082;8.222;2023-03-14T10:35:39;12.50;99.90
1778;DHT22;886;50.082;8.222;2023-03-14T10:38:12;13.00;99.90
1778;DHT22;886;50.082;8.222;2023-03-14T10:40:45;13.10;99.90
1778;DHT22;886;50.082;8.222;2023-03-14T10:43:18;13.20;99.90
1778;DHT22;886;50.082;8.222;2023-03-14T10:45:52;13.20;99.90
1778;DHT22;886;50.082;8.222;2023-03-14T10:48:30;13.20;99.90
1778;DHT22;886;50.082;8.222;2023-03-14T10:51:04;13.00;99.90
1778;DHT22;886;50.082;8.222;2023-03-14T10:53:34;12.90;99.90
1778;DHT22;886;50.082;8.222;2023-03-14T10:56:07;12.80;99.90
1778;DHT22;886;50.082;8.222;2023-03-14T10:58:40;12.70;99.90
1778;DHT22;886;50.082;8.222;2023-03-14T11:01:19;12.70;99.90
1778;DHT22;886;50.082;8.222;2023-03-14T11:04:21;12.70;99.90
1778;DHT22;886;50.082;8.222;2023-03-14T11:07:04;12.60;99.90
1778;DHT22;886;50.082;8.222;2023-03-14T11:09:38;12.60;99.90
1778;DHT22;886;50.082;8.222;2023-03-14T11:12:20;12.70;99.90
1778;DHT22;886;50.082;8.222;2023-03-14T11:15:19;12.70;99.90
1778;DHT22;886;50.082;8.222;2023-03-14T11:17:58;12.80;99.90
1778;DHT22;886;50.082;8.222;2023-03-14T11:20:41;12.90;99.90
1778;DHT22;886;50.082;8.222;2023-03-14T11:23:14;13.00;99.90
1778;DHT22;886;50.082;8.222;2023-03-14T11:25:48;13.00;99.90
1778;DHT22;886;50.082;8.222;2023-03-14T11:28:25;13.00;99.90
1778;DHT22;886;50.082;8.222;2023-03-14T11:31:00;13.10;99.90
1778;DHT22;886;50.082;8.222;2023-03-14T11:33:37;13.10;99.90
1778;DHT22;886;50.082;8.222;2023-03-14T11:36:07;13.10;99.90
1778;DHT22;886;50.082;8.222;2023-03-14T11:38:38;13.00;99.90
1778;DHT22;886;50.082;8.222;2023-03-14T11:41:14;13.00;99.90
1778;DHT22;886;50.082;8.222;2023-03-14T11:43:47;13.00;99.90
1778;DHT22;886;50.082;8.222;2023-03-14T11:46:18;13.00;99.90
1778;DHT22;886;50.082;8.222;2023-03-14T11:48:57;13.10;99.90
1778;DHT22;886;50.082;8.222;2023-03-14T11:51:29;13.10;99.90
1778;DHT22;886;50.082;8.222;2023-03-14T11:54:04;13.00;99.90
1778;DHT22;886;50.082;8.222;2023-03-14T11:56:44;12.80;99.90
1778;DHT22;886;50.082;8.222;2023-03-14T11:59:16;12.60;99.90
1778;DHT22;886;50.082;8.222;2023-03-14T12:01:53;12.40;99.90
1778;DHT22;886;50.082;8.222;2023-03-14T12:04:34;12.20;99.90
1778;DHT22;886;50.082;8.222;2023-03-14T12:07:18;12.00;99.90
1778;DHT22;886;50.082;8.222;2023-03-14T12:09:48;11.80;99.90
1778;DHT22;886;50.082;8.222;2023-03-14T12:12:19;11.80;99.90
1778;DHT22;886;50.082;8.222;2023-03-14T12:14:54;11.80;99.90
1778;DHT22;886;50.082;8.222;2023-03-14T12:17:25;11.80;99.90
1778;DHT22;886;50.082;8.222;2023-03-14T12:20:03;11.80;99.90
1778;DHT22;886;50.082;8.222;2023-03-14T12:22:35;11.80;99.90
1778;DHT22;886;50.082;8.222;2023-03-14T12:25:06;11.70;99.90
1778;DHT22;886;50.082;8.222;2023-03-14T12:27:47;11.90;99.90
1778;DHT22;886;50.082;8.222;2023-03-14T12:30:32;12.10;99.90
1778;DHT22;886;50.082;8.222;2023-03-14T12:33:12;12.10;99.90
1778;DHT22;886;50.082;8.222;2023-03-14T12:38:55;12.00;99.90
1778;DHT22;886;50.082;8.222;2023-03-14T12:41:29;12.00;99.90
1778;DHT22;886;50.082;8.222;2023-03-14T12:50:24;12.00;99.90
1778;DHT22;886;50.082;8.222;2023-03-14T12:53:22;12.10;99.90
1778;DHT22;886;50.082;8.222;2023-03-14T12:56:18;12.00;99.90
1778;DHT22;886;50.082;8.222;2023-03-14T12:59:01;11.90;99.90
1778;DHT22;886;50.082;8.222;2023-03-14T13:01:36;11.70;99.90
1778;DHT22;886;50.082;8.222;2023-03-14T13:04:09;11.60;99.90
1778;DHT22;886;50.082;8.222;2023-03-14T13:06:49;11.50;99.90
1778;DHT22;886;50.082;8.222;2023-03-14T13:12:37;11.70;99.90
1778;DHT22;886;50.082;8.222;2023-03-14T13:15:21;11.80;99.90
1778;DHT22;886;50.082;8.222;2023-03-14T13:17:52;11.90;99.90
1778;DHT22;886;50.082;8.222;2023-03-14T13:20:26;11.90;99.90
1778;DHT22;886;50.082;8.222;2023-03-14T13:22:55;11.90;99.90
1778;DHT22;886;50.082;8.222;2023-03-14T13:25:23;12.00;99.90
1778;DHT22;886;50.082;8.222;2023-03-14T13:27:53;12.20;99.90
1778;DHT22;886;50.082;8.222;2023-03-14T13:30:24;12.40;99.90
1778;DHT22;886;50.082;8.222;2023-03-14T13:32:54;12.50;99.90
1778;DHT22;886;50.082;8.222;2023-03-14T13:35:25;12.50;99.90
1778;DHT22;886;50.082;8.222;2023-03-14T13:37:58;12.60;99.90
1778;DHT22;886;50.082;8.222;2023-03-14T13:40:37;12.60;99.90
1778;DHT22;886;50.082;8.222;2023-03-14T13:43:14;12.70;99.90
1778;DHT22;886;50.082;8.222;2023-03-14T13:45:51;12.70;99.90
1778;DHT22;886;50.082;8.222;2023-03-14T13:48:21;12.80;99.90
1778;DHT22;886;50.082;8.222;2023-03-14T13:50:51;12.80;99.90
1778;DHT22;886;50.082;8.222;2023-03-14T13:53:20;12.70;99.90
1778;DHT22;886;50.082;8.222;2023-03-14T13:55:48;12.20;99.90
1778;DHT22;886;50.082;8.222;2023-03-14T13:58:28;12.20;99.90
1778;DHT22;886;50.082;8.222;2023-03-14T14:01:01;11.60;99.90
1778;DHT22;886;50.082;8.222;2023-03-14T14:03:32;11.40;99.90
1778;DHT22;886;50.082;8.222;2023-03-14T14:06:00;11.30;99.90
1778;DHT22;886;50.082;8.222;2023-03-14T14:08:27;11.10;99.90
1778;DHT22;886;50.082;8.222;2023-03-14T14:10:59;10.90;99.90
1778;DHT22;886;50.082;8.222;2023-03-14T14:13:32;10.80;99.90
1778;DHT22;886;50.082;8.222;2023-03-14T14:16:02;10.80;99.90
1778;DHT22;886;50.082;8.222;2023-03-14T14:18:31;10.80;99.90
1778;DHT22;886;50.082;8.222;2023-03-14T14:20:59;10.70;99.90
1778;DHT22;886;50.082;8.222;2023-03-14T14:23:28;10.70;99.90
1778;DHT22;886;50.082;8.222;2023-03-14T14:25:56;10.80;99.90
1778;DHT22;886;50.082;8.222;2023-03-14T14:28:26;10.80;99.90
1778;DHT22;886;50.082;8.222;2023-03-14T14:31:05;10.60;99.90
1778;DHT22;886;50.082;8.222;2023-03-14T14:33:44;10.30;99.90
1778;DHT22;886;50.082;8.222;2023-03-14T14:36:17;9.70;99.90
1778;DHT22;886;50.082;8.222;2023-03-14T14:38:58;9.40;99.90
1778;DHT22;886;50.082;8.222;2023-03-14T14:41:30;9.10;99.90
1778;DHT22;886;50.082;8.222;2023-03-14T14:44:00;8.90;99.90
1778;DHT22;886;50.082;8.222;2023-03-14T14:46:29;8.70;99.90
1778;DHT22;886;50.082;8.222;2023-03-14T14:49:03;8.70;99.90
1778;DHT22;886;50.082;8.222;2023-03-14T14:51:34;8.70;99.90
1778;DHT22;886;50.082;8.222;2023-03-14T14:54:14;8.70;99.90
1778;DHT22;886;50.082;8.222;2023-03-14T14:56:48;8.70;99.90
1778;DHT22;886;50.082;8.222;2023-03-14T14:59:24;8.60;99.90
1778;DHT22;886;50.082;8.222;2023-03-14T15:01:58;8.50;99.90
1778;DHT22;886;50.082;8.222;2023-03-14T15:04:26;8.50;99.90
1778;DHT22;886;50.082;8.222;2023-03-14T15:06:54;8.40;99.90
1778;DHT22;886;50.082;8.222;2023-03-14T15:09:21;8.30;99.90
1778;DHT22;886;50.082;8.222;2023-03-14T15:11:49;8.20;99.90
1778;DHT22;886;50.082;8.222;2023-03-14T15:14:16;8.20;99.90
1778;DHT22;886;50.082;8.222;2023-03-14T15:16:44;8.10;99.90
1778;DHT22;886;50.082;8.222;2023-03-14T15:19:20;8.20;99.90
1778;DHT22;886;50.082;8.222;2023-03-14T15:21:51;8.10;99.90
1778;DHT22;886;50.082;8.222;2023-03-14T15:24:19;8.20;99.90
1778;DHT22;886;50.082;8.222;2023-03-14T15:26:47;8.20;99.90
1778;DHT22;886;50.082;8.222;2023-03-14T15:29:14;8.20;99.90
1778;DHT22;886;50.082;8.222;2023-03-14T15:31:44;8.10;99.90
1778;DHT22;886;50.082;8.222;2023-03-14T15:34:11;8.20;99.90
1778;DHT22;886;50.082;8.222;2023-03-14T15:36:39;8.10;99.90
1778;DHT22;886;50.082;8.222;2023-03-14T15:39:07;8.00;99.90
1778;DHT22;886;50.082;8.222;2023-03-14T15:41:36;7.90;99.90
1778;DHT22;886;50.082;8.222;2023-03-14T15:44:04;7.80;99.90
1778;DHT22;886;50.082;8.222;2023-03-14T15:46:31;7.80;99.90
1778;DHT22;886;50.082;8.222;2023-03-14T15:48:59;7.80;99.90
1778;DHT22;886;50.082;8.222;2023-03-14T15:51:26;7.90;99.90
1778;DHT22;886;50.082;8.222;2023-03-14T15:53:53;8.00;99.90
1778;DHT22;886;50.082;8.222;2023-03-14T15:56:20;8.10;99.90
1778;DHT22;886;50.082;8.222;2023-03-14T15:58:51;8.20;99.90
1778;DHT22;886;50.082;8.222;2023-03-14T16:01:18;8.10;99.90
1778;DHT22;886;50.082;8.222;2023-03-14T16:03:46;8.00;99.90
1778;DHT22;886;50.082;8.222;2023-03-14T16:06:16;7.80;99.90
1778;DHT22;886;50.082;8.222;2023-03-14T16:08:43;7.90;99.90
1778;DHT22;886;50.082;8.222;2023-03-14T16:11:12;7.70;99.90
1778;DHT22;886;50.082;8.222;2023-03-14T16:13:41;7.60;99.90
1778;DHT22;886;50.082;8.222;2023-03-14T16:16:08;7.50;99.90
1778;DHT22;886;50.082;8.222;2023-03-14T16:18:36;7.50;99.90
1778;DHT22;886;50.082;8.222;2023-03-14T16:21:06;7.50;99.90
1778;DHT22;886;50.082;8.222;2023-03-14T16:23:36;7.40;99.90
1778;DHT22;886;50.082;8.222;2023-03-14T16:26:04;7.50;99.90
1778;DHT22;886;50.082;8.222;2023-03-14T16:28:32;7.50;99.90
1778;DHT22;886;50.082;8.222;2023-03-14T16:31:00;7.60;99.90
1778;DHT22;886;50.082;8.222;2023-03-14T16:33:28;7.60;99.90
1778;DHT22;886;50.082;8.222;2023-03-14T16:35:57;7.50;99.90
1778;DHT22;886;50.082;8.222;2023-03-14T16:38:27;7.40;99.90
1778;DHT22;886;50.082;8.222;2023-03-14T16:41:02;7.50;99.90
1778;DHT22;886;50.082;8.222;2023-03-14T16:43:32;7.50;99.90
1778;DHT22;886;50.082;8.222;2023-03-14T16:46:04;7.50;99.90
1778;DHT22;886;50.082;8.222;2023-03-14T16:48:33;7.50;99.90
1778;DHT22;886;50.082;8.222;2023-03-14T16:51:00;7.60;99.90